Time;durP1;ratioP1;P1;durP2;ratioP2;P2;SDS_P1;SDS_P2;PMS_P1;PMS_P2;Temp;Humidity;BMP_temperature;BMP_pressure;BME280_temperature;BME280_humidity;BME280_pressure;Samples;Min_cycle;Max_cycle;Signal;HPM_P1;HPM_P2
2021/01/04 00:00:42;;;;;;;;;76.00;64.50;;;;;10.54;47.19;98500.88;6129360;28;126528;-58
2021/01/04 00:04:04;;;;;;;;;76.00;63.00;;;;;10.54;47.31;98489.28;6161110;28;124682;-58
2021/01/04 00:07:36;;;;;;;;;77.20;66.40;;;;;10.58;47.21;98491.28;6160914;28;124876;-59
2021/01/04 00:10:58;;;;;;;;;76.60;66.00;;;;;10.63;47.21;98487.88;6160755;28;126925;-59
2021/01/04 00:14:12;;;;;;;;;74.60;63.00;;;;;10.64;47.14;98489.53;6144573;28;126553;-59
2021/01/04 00:17:34;;;;;;;;;76.00;63.00;;;;;10.63;47.00;98485.19;6153546;28;124556;-58
2021/01/04 00:20:50;;;;;;;;;77.00;64.00;;;;;10.57;47.04;98488.81;6157224;28;126214;-58
2021/01/04 00:23:51;;;;;;;;;78.20;65.20;;;;;10.53;47.00;98491.16;6158512;28;126645;-59
2021/01/04 00:27:09;;;;;;;;;77.80;66.60;;;;;10.44;47.06;98495.22;6159899;28;125485;-59
2021/01/04 00:30:22;;;;;;;;;75.80;61.20;;;;;10.35;46.88;98494.75;6145074;28;126234;-58
2021/01/04 00:33:26;;;;;;;;;78.00;65.50;;;;;10.27;46.99;98494.22;6160672;28;125999;-59
2021/01/04 00:36:54;;;;;;;;;76.00;65.00;;;;;9.74;46.90;98422.22;6159880;28;124877;-58
2021/01/04 00:40:37;;;;;;;;;77.40;63.80;;;;;10.12;46.51;98496.47;6123422;28;124887;-58
2021/01/04 00:43:47;;;;;;;;;75.00;61.00;;;;;10.01;46.61;98498.09;6126292;28;125777;-58
2021/01/04 00:47:07;;;;;;;;;75.75;61.50;;;;;9.95;47.09;98490.91;6149026;28;125786;-58
2021/01/04 00:50:22;;;;;;;;;76.00;63.00;;;;;9.57;47.67;98461.59;6159241;28;126829;-59
2021/01/04 00:53:23;;;;;;;;;73.00;61.40;;;;;9.84;47.36;98495.19;6158708;28;125707;-58
2021/01/04 00:56:38;;;;;;;;;76.00;63.00;;;;;9.76;47.02;98486.63;6159563;28;124242;-58
2021/01/04 00:59:47;;;;;;;;;73.00;59.00;;;;;9.65;47.91;98495.44;6159912;28;125900;-58
2021/01/04 01:03:21;;;;;;;;;71.40;58.40;;;;;9.68;48.27;98501.19;6159787;28;126936;-59
2021/01/04 01:06:41;;;;;;;;;70.80;56.40;;;;;9.70;48.28;98495.59;6146023;28;126051;-58
2021/01/04 01:09:47;;;;;;;;;73.00;55.50;;;;;9.67;48.05;98498.72;6154159;28;127829;-59
2021/01/04 01:13:08;;;;;;;;;73.00;56.60;;;;;9.61;47.94;98499.63;6152372;28;125818;-59
2021/01/04 01:16:23;;;;;;;;;73.00;56.40;;;;;9.51;48.07;98509.06;6159789;28;123856;-59
2021/01/04 01:19:35;;;;;;;;;73.00;57.00;;;;;9.42;47.92;98506.88;6156189;28;126726;-58
2021/01/04 01:22:39;;;;;;;;;69.50;54.00;;;;;9.39;48.41;98508.13;6157254;28;124412;-58
2021/01/04 01:25:53;;;;;;;;;71.00;54.75;;;;;9.30;48.77;98512.16;6159416;28;124840;-59
2021/01/04 01:29:13;;;;;;;;;68.20;53.00;;;;;9.16;48.53;98491.81;6158950;28;126262;-58
2021/01/04 01:32:52;;;;;;;;;68.40;53.00;;;;;9.27;48.61;98518.00;6144142;28;124879;-59
2021/01/04 01:36:04;;;;;;;;;67.60;52.00;;;;;9.30;48.31;98516.72;6142918;28;124868;-58
2021/01/04 01:39:14;;;;;;;;;70.80;54.20;;;;;9.30;48.12;98522.94;6159091;28;125848;-58
2021/01/04 01:42:54;;;;;;;;;69.00;53.00;;;;;9.32;48.45;98520.84;6159233;28;126145;-57
2021/01/04 01:46:11;;;;;;;;;69.00;53.00;;;;;9.38;48.76;98530.69;6146287;28;126493;-58
2021/01/04 01:49:26;;;;;;;;;68.00;52.00;;;;;9.43;48.25;98521.97;6149580;28;126157;-58
2021/01/04 01:52:47;;;;;;;;;70.00;53.00;;;;;9.45;47.72;98525.25;6138452;28;126783;-58
2021/01/04 01:56:12;;;;;;;;;67.25;51.25;;;;;9.42;47.48;98517.66;6158113;28;124136;-59
2021/01/04 01:59:46;;;;;;;;;66.75;52.00;;;;;9.24;47.80;98490.69;6149941;28;123096;-58
2021/01/04 02:03:09;;;;;;;;;65.00;50.00;;;;;9.40;47.86;98508.97;6141565;28;124684;-58
2021/01/04 02:06:36;;;;;;;;;68.25;52.00;;;;;9.44;48.55;98510.97;6143446;28;124400;-59
2021/01/04 02:09:47;;;;;;;;;67.60;52.00;;;;;9.53;48.37;98509.63;6158997;28;126150;-58
2021/01/04 02:13:00;;;;;;;;;65.00;50.00;;;;;9.65;48.48;98503.50;6158743;28;125968;-58
2021/01/04 02:16:13;;;;;;;;;63.60;50.00;;;;;9.72;48.39;98496.19;6157196;28;126070;-58
2021/01/04 02:19:33;;;;;;;;;62.20;48.00;;;;;9.78;48.63;98492.56;6141036;28;125952;-59
2021/01/04 02:22:55;;;;;;;;;68.00;51.00;;;;;9.79;48.39;98495.03;6159045;28;127196;-58
2021/01/04 02:26:02;;;;;;;;;67.80;51.60;;;;;9.88;48.26;98498.25;6158494;28;124832;-58
2021/01/04 02:29:14;;;;;;;;;69.20;52.80;;;;;9.79;48.36;98508.50;6148274;28;126513;-58
2021/01/04 02:32:16;;;;;;;;;70.20;53.80;;;;;9.58;48.20;98512.47;6158698;28;124693;-57
2021/01/04 02:35:17;;;;;;;;;73.00;57.60;;;;;9.50;48.38;98511.94;6158377;28;125232;-59
2021/01/04 02:38:27;;;;;;;;;73.50;60.00;;;;;9.47;48.53;98518.63;6157617;28;127705;-58
2021/01/04 02:41:51;;;;;;;;;73.00;57.00;;;;;9.44;48.65;98518.22;6157600;28;123698;-58
2021/01/04 02:44:54;;;;;;;;;72.60;59.40;;;;;9.44;48.49;98519.06;6158029;28;125871;-57
2021/01/04 02:48:20;;;;;;;;;72.60;58.60;;;;;9.41;48.63;98519.50;6157860;28;124138;-59
2021/01/04 02:51:29;;;;;;;;;72.75;57.00;;;;;9.34;48.51;98504.47;6157775;28;124861;-59
2021/01/04 02:54:40;;;;;;;;;74.00;60.00;;;;;9.36;49.00;98505.06;6159312;28;97033;-59
2021/01/04 02:57:58;;;;;;;;;72.00;56.60;;;;;9.38;48.78;98506.47;6157855;28;126304;-58
2021/01/04 03:01:07;;;;;;;;;72.40;58.40;;;;;9.32;49.09;98506.56;6141776;28;126026;-58
2021/01/04 03:04:14;;;;;;;;;73.00;56.60;;;;;9.31;48.85;98503.06;6142586;28;124714;-58
2021/01/04 03:07:26;;;;;;;;;73.25;57.50;;;;;9.30;48.78;98514.84;6158905;28;124890;-58
2021/01/04 03:10:30;;;;;;;;;74.00;56.80;;;;;9.31;48.63;98518.38;6162547;28;127667;-58
2021/01/04 03:13:47;;;;;;;;;76.00;58.00;;;;;9.25;48.54;98509.31;6162059;28;125013;-58
2021/01/04 03:17:07;;;;;;;;;71.25;56.75;;;;;9.19;48.07;98504.81;6162335;28;124725;-58
2021/01/04 03:20:14;;;;;;;;;71.60;58.40;;;;;9.14;47.97;98510.88;6146834;28;125985;-58
2021/01/04 03:23:15;;;;;;;;;73.00;58.40;;;;;9.14;48.77;98515.41;6161768;28;126078;-58
2021/01/04 03:26:21;;;;;;;;;71.40;57.40;;;;;9.00;48.33;98489.69;6162531;28;125238;-59
2021/01/04 03:29:22;;;;;;;;;73.60;58.60;;;;;9.07;47.93;98510.13;6145460;28;125775;-58
2021/01/04 03:32:24;;;;;;;;;72.75;58.25;;;;;9.06;48.01;98513.03;6161399;28;126027;-58
2021/01/04 03:35:25;;;;;;;;;77.00;63.00;;;;;9.04;48.08;98518.59;6161518;28;127486;-58
2021/01/04 03:38:27;;;;;;;;;76.00;61.50;;;;;8.69;47.85;98461.88;6161085;28;125304;-58
2021/01/04 03:41:29;;;;;;;;;75.40;62.00;;;;;9.05;48.03;98517.56;6145452;28;126701;-58
2021/01/04 03:44:31;;;;;;;;;75.00;61.00;;;;;9.03;48.39;98522.38;6162022;28;126031;-58
2021/01/04 03:47:32;;;;;;;;;76.20;63.20;;;;;9.06;48.28;98523.78;6160776;28;124848;-58
2021/01/04 03:50:33;;;;;;;;;74.33;61.00;;;;;9.05;48.12;98528.34;6161475;28;126574;-58
2021/01/04 03:53:35;;;;;;;;;79.00;68.60;;;;;9.09;48.39;98523.31;6161535;28;125327;-58
2021/01/04 03:56:36;;;;;;;;;88.00;77.25;;;;;8.99;48.63;98507.69;6161601;28;125108;-58
2021/01/04 03:59:38;;;;;;;;;95.75;80.75;;;;;9.20;48.75;98524.47;6147157;28;126620;-58
2021/01/04 04:02:40;;;;;;;;;95.00;80.00;;;;;9.27;48.97;98530.63;6161317;28;127500;-58
2021/01/04 04:05:42;;;;;;;;;95.40;80.40;;;;;9.22;49.04;98531.28;6160939;28;126316;-58
2021/01/04 04:08:43;;;;;;;;;86.00;74.20;;;;;9.27;49.18;98531.44;6161082;28;127042;-59
2021/01/04 04:11:45;;;;;;;;;89.40;77.80;;;;;9.30;48.90;98540.94;6160608;28;125240;-58
2021/01/04 04:14:48;;;;;;;;;93.00;82.20;;;;;9.37;48.95;98539.84;6161332;28;125643;-58
2021/01/04 04:17:49;;;;;;;;;99.25;82.00;;;;;9.39;48.65;98544.97;6157750;28;123887;-58
2021/01/04 04:20:51;;;;;;;;;97.00;80.67;;;;;9.37;48.50;98537.16;6160282;28;125207;-58
2021/01/04 04:23:52;;;;;;;;;91.80;84.40;;;;;9.34;48.71;98542.13;6160715;28;125074;-58
2021/01/04 04:26:54;;;;;;;;;95.75;83.00;;;;;9.34;48.76;98542.94;6159971;28;125268;-58
2021/01/04 04:29:55;;;;;;;;;92.25;81.25;;;;;9.32;48.44;98550.44;6158205;28;126878;-58
2021/01/04 04:32:58;;;;;;;;;93.00;83.00;;;;;9.30;48.51;98531.00;6154136;28;127459;-58
2021/01/04 04:36:00;;;;;;;;;95.80;83.00;;;;;9.32;48.44;98530.78;6161016;28;125727;-58
2021/01/04 04:39:02;;;;;;;;;90.60;80.60;;;;;9.18;48.75;98518.50;6160652;28;126399;-58
2021/01/04 04:42:11;;;;;;;;;91.00;81.00;;;;;9.34;48.62;98528.66;6144316;28;125219;-58
2021/01/04 04:45:19;;;;;;;;;85.60;77.00;;;;;9.19;48.55;98507.50;6160185;28;123571;-58
2021/01/04 04:48:42;;;;;;;;;95.00;83.60;;;;;9.29;48.62;98528.50;6160392;28;124691;-59
2021/01/04 04:52:01;;;;;;;;;93.20;77.00;;;;;9.27;48.48;98526.06;6156120;28;125862;-59
2021/01/04 04:55:39;;;;;;;;;101.00;85.00;;;;;9.24;48.39;98525.66;6159330;28;125369;-58
2021/01/04 04:58:49;;;;;;;;;93.00;80.80;;;;;8.97;48.35;98492.84;6139322;28;124222;-58
2021/01/04 05:02:06;;;;;;;;;91.60;80.40;;;;;9.17;48.68;98531.13;6157596;28;125229;-58
2021/01/04 05:05:22;;;;;;;;;87.80;79.80;;;;;9.07;48.71;98525.44;6160098;28;124692;-59
2021/01/04 05:08:51;;;;;;;;;91.40;79.60;;;;;8.97;48.80;98520.56;6155745;28;126005;-59
2021/01/04 05:12:08;;;;;;;;;96.60;80.60;;;;;8.91;48.68;98534.88;6160188;28;125748;-59
2021/01/04 05:15:33;;;;;;;;;93.40;82.20;;;;;8.90;48.81;98521.63;6159559;28;124807;-58
2021/01/04 05:18:58;;;;;;;;;93.00;78.40;;;;;8.86;48.74;98523.94;6158836;28;124809;-59
2021/01/04 05:22:34;;;;;;;;;92.20;79.00;;;;;8.84;48.61;98519.84;6152426;28;126257;-59
2021/01/04 05:25:45;;;;;;;;;91.60;82.40;;;;;8.83;49.00;98532.47;6159898;28;125954;-58
2021/01/04 05:29:05;;;;;;;;;89.60;79.00;;;;;8.78;49.19;98529.59;6159516;28;126299;-58
2021/01/04 05:32:25;;;;;;;;;90.80;80.40;;;;;8.73;48.77;98520.56;6142103;28;125295;-59
2021/01/04 05:35:28;;;;;;;;;95.00;80.00;;;;;8.68;48.43;98516.66;6146590;28;124859;-58
2021/01/04 05:38:59;;;;;;;;;93.00;78.00;;;;;8.66;48.34;98512.53;6159354;28;124538;-59
2021/01/04 05:42:36;;;;;;;;;92.00;81.00;;;;;8.59;48.23;98519.84;6135569;28;126614;-58
2021/01/04 05:45:59;;;;;;;;;89.25;79.00;;;;;8.55;48.66;98511.38;6159154;28;127123;-58
2021/01/04 05:49:27;;;;;;;;;92.00;78.75;;;;;8.54;48.34;98515.13;6159402;28;124577;-58
2021/01/04 05:52:28;;;;;;;;;94.40;83.00;;;;;8.52;48.33;98508.28;6139345;28;125944;-58
2021/01/04 05:55:30;;;;;;;;;90.60;80.60;;;;;8.49;48.27;98511.44;6154206;28;127251;-59
2021/01/04 05:58:33;;;;;;;;;85.00;74.50;;;;;8.44;48.30;98504.03;6147249;28;125179;-58
2021/01/04 06:01:36;;;;;;;;;89.20;76.60;;;;;8.44;48.61;98504.03;6152920;28;126282;-58
2021/01/04 06:04:38;;;;;;;;;95.20;79.00;;;;;8.45;48.28;98511.06;6158914;28;124451;-58
2021/01/04 06:07:42;;;;;;;;;87.00;77.60;;;;;8.43;48.16;98523.84;6158144;28;126567;-58
2021/01/04 06:10:43;;;;;;;;;81.25;69.75;;;;;8.40;48.55;98513.56;6153028;28;124930;-58
2021/01/04 06:13:46;;;;;;;;;81.60;71.00;;;;;8.42;48.81;98511.47;6153168;28;126670;-58
2021/01/04 06:16:48;;;;;;;;;81.20;69.00;;;;;8.43;48.77;98515.81;6136802;28;125046;-58
2021/01/04 06:19:51;;;;;;;;;75.20;63.80;;;;;8.14;49.47;98465.34;6157849;28;126687;-58
2021/01/04 06:22:53;;;;;;;;;77.00;66.60;;;;;8.54;50.03;98508.91;6158751;28;125141;-58
2021/01/04 06:25:57;;;;;;;;;77.00;63.60;;;;;8.65;50.09;98521.63;6159386;28;126579;-59
2021/01/04 06:29:01;;;;;;;;;79.25;69.00;;;;;8.69;49.32;98515.63;6149459;28;124922;-58
2021/01/04 06:32:06;;;;;;;;;78.00;65.50;;;;;8.67;48.97;98524.94;6154429;28;126034;-58
2021/01/04 06:35:21;;;;;;;;;76.00;62.60;;;;;8.72;49.39;98532.34;6154019;28;126071;-58
2021/01/04 06:38:27;;;;;;;;;79.33;67.00;;;;;8.73;49.27;98529.44;6155465;28;126079;-58
2021/01/04 06:41:31;;;;;;;;;78.00;67.80;;;;;8.76;49.43;98537.06;6158338;28;126080;-58
2021/01/04 06:44:33;;;;;;;;;77.00;65.20;;;;;8.84;48.74;98541.34;6158910;28;125172;-58
2021/01/04 06:47:59;;;;;;;;;76.00;65.00;;;;;8.87;49.08;98552.47;6155674;28;125121;-58
2021/01/04 06:51:06;;;;;;;;;78.00;65.60;;;;;8.87;48.77;98554.34;6158414;28;124807;-58
2021/01/04 06:54:26;;;;;;;;;81.50;69.00;;;;;8.79;49.13;98560.81;6125981;28;124329;-58
2021/01/04 06:57:49;;;;;;;;;79.00;69.00;;;;;8.86;48.79;98563.44;6152196;28;124573;-58
2021/01/04 07:01:14;;;;;;;;;81.25;65.50;;;;;8.68;48.97;98558.81;6147489;28;124843;-58
2021/01/04 07:04:55;;;;;;;;;78.00;67.00;;;;;8.97;49.11;98573.50;6141724;28;126025;-58
2021/01/04 07:08:26;;;;;;;;;79.40;66.40;;;;;8.96;49.84;98583.44;6156117;28;124720;-59
2021/01/04 07:11:39;;;;;;;;;74.00;62.00;;;;;9.09;49.95;98590.56;6158089;28;124822;-58
2021/01/04 07:15:01;;;;;;;;;74.00;61.50;;;;;9.19;49.80;98582.03;6158198;28;125959;-58
2021/01/04 07:18:37;;;;;;;;;76.00;62.00;;;;;9.37;49.65;98573.97;6156232;28;126139;-59
2021/01/04 07:22:14;;;;;;;;;71.75;56.25;;;;;9.51;49.59;98580.88;6157403;28;127240;-58
2021/01/04 07:25:40;;;;;;;;;74.25;57.50;;;;;9.71;49.68;98583.38;6138955;28;124832;-59
2021/01/04 07:29:20;;;;;;;;;72.50;55.00;;;;;10.10;48.80;98579.41;6156893;28;126448;-58
2021/01/04 07:32:29;;;;;;;;;69.80;55.00;;;;;10.67;47.70;98578.03;6152523;28;126867;-58
2021/01/04 07:35:46;;;;;;;;;72.00;57.40;;;;;10.97;46.87;98578.81;6157961;28;125477;-58
2021/01/04 07:39:21;;;;;;;;;72.50;56.00;;;;;11.02;46.67;98584.34;6157902;28;124455;-58
2021/01/04 07:42:37;;;;;;;;;72.20;57.20;;;;;10.86;46.84;98587.69;6150571;28;127899;-59
2021/01/04 07:46:24;;;;;;;;;72.60;53.00;;;;;10.57;47.25;98604.72;6156851;28;127065;-59
2021/01/04 07:50:01;;;;;;;;;69.60;54.60;;;;;10.65;47.51;98599.03;6146103;28;127421;-59
2021/01/04 07:53:10;;;;;;;;;66.00;52.00;;;;;10.71;47.51;98596.22;6147910;28;126934;-59
2021/01/04 07:56:46;;;;;;;;;67.00;53.00;;;;;10.71;47.15;98601.59;6165678;28;124512;-59
2021/01/04 08:00:16;;;;;;;;;67.00;51.00;;;;;10.80;47.18;98602.91;6162302;28;126825;-59
2021/01/04 08:03:18;;;;;;;;;70.00;53.00;;;;;10.85;47.29;98607.63;6160036;28;125986;-58
2021/01/04 08:06:42;;;;;;;;;65.20;50.80;;;;;10.89;47.08;98594.50;6160722;28;127332;-59
2021/01/04 08:09:58;;;;;;;;;71.40;54.40;;;;;11.02;47.14;98597.00;6174640;28;124090;-60
2021/01/04 08:13:37;;;;;;;;;68.80;52.00;;;;;11.33;46.59;98604.81;6159724;28;125680;-59
2021/01/04 08:17:05;;;;;;;;;65.60;51.00;;;;;11.93;45.46;98620.78;6148872;28;124441;-59
2021/01/04 08:20:09;;;;;;;;;70.80;55.40;;;;;11.98;44.89;98605.50;6117125;28;125992;-58
2021/01/04 08:23:15;;;;;;;;;68.25;53.00;;;;;12.41;44.26;98607.75;6159226;28;125002;-59
2021/01/04 08:26:22;;;;;;;;;69.20;53.20;;;;;12.47;44.19;98606.78;6159981;28;126229;-58
2021/01/04 08:29:35;;;;;;;;;68.00;53.00;;;;;12.88;43.65;98599.44;6154916;28;126317;-59
2021/01/04 08:32:55;;;;;;;;;67.00;50.75;;;;;13.34;43.13;98601.88;6159065;28;124966;-59
2021/01/04 08:35:57;;;;;;;;;68.25;51.25;;;;;13.71;41.34;98604.06;6149819;28;125378;-58
2021/01/04 08:39:19;;;;;;;;;67.00;53.00;;;;;13.61;41.30;98598.50;6159719;28;126589;-58
2021/01/04 08:42:20;;;;;;;;;69.50;53.00;;;;;13.52;41.34;98603.53;6144707;28;125580;-59
2021/01/04 08:45:29;;;;;;;;;67.20;52.60;;;;;13.39;41.48;98606.56;6158847;28;125261;-58
2021/01/04 08:48:36;;;;;;;;;67.80;52.00;;;;;13.28;41.83;98596.66;6163659;28;126020;-58
2021/01/04 08:51:41;;;;;;;;;64.00;50.00;;;;;13.10;42.11;98592.25;6178055;28;124453;-59
2021/01/04 08:54:42;;;;;;;;;62.60;49.00;;;;;12.85;42.55;98594.53;6161519;28;126086;-59
2021/01/04 08:57:44;;;;;;;;;64.25;50.00;;;;;12.59;42.93;98596.75;6158918;28;125571;-59
2021/01/04 09:01:16;;;;;;;;;68.00;50.00;;;;;12.31;43.42;98585.13;6158992;28;126467;-59
2021/01/04 09:04:30;;;;;;;;;67.00;51.00;;;;;11.91;44.09;98596.72;6144275;28;126894;-59
2021/01/04 09:07:32;;;;;;;;;68.60;52.60;;;;;11.69;44.35;98599.16;6154481;28;124742;-58
2021/01/04 09:10:45;;;;;;;;;68.00;53.00;;;;;11.55;45.05;98591.53;6138591;28;126429;-58
2021/01/04 09:13:48;;;;;;;;;66.40;51.00;;;;;11.45;45.36;98594.00;6156232;28;125962;-58
2021/01/04 09:16:49;;;;;;;;;66.25;50.75;;;;;11.22;45.65;98590.25;6159040;28;127019;-58
2021/01/04 09:20:21;;;;;;;;;64.50;49.00;;;;;11.06;46.10;98587.38;6158401;28;125277;-58
2021/01/04 09:23:26;;;;;;;;;66.60;51.00;;;;;10.97;46.57;98578.81;6119997;28;125142;-58
2021/01/04 09:26:33;;;;;;;;;70.00;52.67;;;;;11.01;46.82;98576.47;6158284;28;124880;-58
2021/01/04 09:29:44;;;;;;;;;66.50;50.00;;;;;11.06;46.79;98577.41;6158172;28;124843;-58
2021/01/04 09:32:46;;;;;;;;;65.00;50.00;;;;;11.12;46.84;98583.75;6157117;28;125957;-59
2021/01/04 09:35:49;;;;;;;;;59.00;46.00;;;;;10.67;46.83;98553.75;6157889;28;125059;-59
2021/01/04 09:39:04;;;;;;;;;61.00;47.00;;;;;11.06;46.81;98606.28;6157883;28;126618;-59
2021/01/04 09:42:12;;;;;;;;;61.00;47.60;;;;;11.12;47.20;98594.56;6141552;28;126433;-58
2021/01/04 09:45:20;;;;;;;;;63.80;49.20;;;;;11.26;46.92;98602.22;6151147;28;127013;-59
2021/01/04 09:48:28;;;;;;;;;58.25;45.75;;;;;11.43;48.13;98602.34;6157651;28;124981;-59
2021/01/04 09:51:46;;;;;;;;;60.00;45.00;;;;;11.60;47.29;98589.78;6155895;28;126557;-59
2021/01/04 09:54:54;;;;;;;;;60.00;47.40;;;;;11.57;46.17;98587.56;6147316;28;126451;-60
2021/01/04 09:57:59;;;;;;;;;60.25;47.75;;;;;11.54;46.22;98571.81;6158329;28;125117;-59
2021/01/04 10:01:05;;;;;;;;;58.00;46.00;;;;;11.53;46.35;98580.97;6156667;28;125518;-59
2021/01/04 10:04:07;;;;;;;;;60.40;47.40;;;;;11.03;46.38;98521.25;6123470;28;125007;-59
2021/01/04 10:07:13;;;;;;;;;58.25;46.00;;;;;11.40;47.08;98575.81;6157770;28;125048;-58
2021/01/04 10:10:21;;;;;;;;;60.60;45.60;;;;;11.48;46.78;98577.34;6167075;28;126184;-59
2021/01/04 10:13:24;;;;;;;;;57.00;44.00;;;;;11.53;46.49;98577.47;6157880;28;125538;-59
2021/01/04 10:16:27;;;;;;;;;54.40;44.00;;;;;11.56;46.75;98580.50;6157211;28;125793;-59
2021/01/04 10:19:36;;;;;;;;;54.60;42.00;;;;;11.59;46.45;98577.31;6156536;28;126658;-58
2021/01/04 10:22:47;;;;;;;;;51.00;41.80;;;;;11.61;46.38;98571.69;6157765;28;127195;-60
2021/01/04 10:25:57;;;;;;;;;55.60;44.60;;;;;11.69;46.39;98571.34;6158094;28;126096;-59
2021/01/04 10:28:58;;;;;;;;;55.40;44.00;;;;;11.86;46.35;98560.66;6157556;28;127060;-58
2021/01/04 10:32:08;;;;;;;;;55.40;44.00;;;;;12.00;45.99;98557.47;6157300;28;127299;-59
2021/01/04 10:35:23;;;;;;;;;61.00;47.00;;;;;12.06;45.43;98567.31;6157361;28;127155;-59
2021/01/04 10:38:41;;;;;;;;;57.25;45.75;;;;;12.03;45.43;98567.78;6157711;28;125413;-60
2021/01/04 10:41:42;;;;;;;;;58.50;46.00;;;;;12.00;45.80;98562.88;6157082;28;124757;-59
2021/01/04 10:44:44;;;;;;;;;57.00;43.80;;;;;11.76;45.98;98561.28;6145161;28;127630;-58
2021/01/04 10:48:07;;;;;;;;;55.80;44.00;;;;;11.78;46.18;98561.03;6153619;28;128331;-59
2021/01/04 10:51:19;;;;;;;;;60.00;45.00;;;;;11.42;46.57;98570.19;6154077;28;126727;-59
2021/01/04 10:54:41;;;;;;;;;58.60;44.00;;;;;11.33;47.01;98569.72;6157059;28;125639;-58
2021/01/04 10:57:48;;;;;;;;;56.50;44.00;;;;;11.43;47.05;98561.03;6161729;28;126106;-59
2021/01/04 11:01:07;;;;;;;;;57.00;44.75;;;;;11.40;47.17;98558.78;6157241;28;125881;-59
2021/01/04 11:04:18;;;;;;;;;60.80;47.00;;;;;11.67;47.01;98551.88;6144835;28;126089;-59
2021/01/04 11:07:26;;;;;;;;;60.40;48.00;;;;;11.82;46.74;98544.13;6149550;28;127923;-60
2021/01/04 11:10:29;;;;;;;;;59.60;45.60;;;;;11.94;46.35;98533.28;6157436;28;127228;-59
2021/01/04 11:13:33;;;;;;;;;55.60;43.00;;;;;12.23;46.38;98537.66;6157026;28;127656;-60
2021/01/04 11:16:43;;;;;;;;;54.00;43.00;;;;;12.41;46.01;98531.25;6157330;28;127251;-59
2021/01/04 11:19:45;;;;;;;;;56.60;44.60;;;;;12.47;45.38;98532.97;6156077;28;126076;-59
2021/01/04 11:22:59;;;;;;;;;54.20;43.00;;;;;12.43;45.26;98534.50;6154509;28;125390;-59
2021/01/04 11:26:01;;;;;;;;;55.00;44.00;;;;;12.24;45.61;98530.38;6155280;28;127548;-59
2021/01/04 11:29:03;;;;;;;;;55.60;44.00;;;;;12.33;45.78;98529.75;6142729;28;125291;-60
2021/01/04 11:32:07;;;;;;;;;58.80;45.00;;;;;12.18;45.73;98512.41;6144363;28;126370;-59
2021/01/04 11:35:10;;;;;;;;;60.40;45.00;;;;;12.18;45.82;98517.81;6161222;28;124967;-59
2021/01/04 11:38:11;;;;;;;;;54.60;41.80;;;;;12.20;45.78;98513.00;6151812;28;127799;-59
2021/01/04 11:41:13;;;;;;;;;56.40;43.40;;;;;12.12;45.91;98504.19;6154548;28;127264;-59
2021/01/04 11:44:14;;;;;;;;;55.00;44.00;;;;;11.99;46.28;98520.69;6161840;28;128431;-59
2021/01/04 11:47:17;;;;;;;;;55.20;42.60;;;;;11.88;46.49;98518.03;6160821;28;125310;-59
2021/01/04 11:50:18;;;;;;;;;54.40;42.40;;;;;11.86;46.81;98518.28;6161030;28;125352;-59
2021/01/04 11:53:19;;;;;;;;;58.20;43.80;;;;;11.92;46.83;98517.31;6153931;28;125254;-60
2021/01/04 11:56:23;;;;;;;;;58.80;45.00;;;;;11.83;47.14;98513.34;6160383;28;126713;-60
2021/01/04 11:59:24;;;;;;;;;56.20;44.80;;;;;11.85;47.21;98505.00;6160998;28;127404;-60
2021/01/04 12:02:26;;;;;;;;;60.00;45.80;;;;;12.04;47.18;98507.28;6160130;28;128713;-59
2021/01/04 12:05:28;;;;;;;;;63.40;48.00;;;;;12.20;47.10;98513.00;6160775;28;126284;-59
2021/01/04 12:08:29;;;;;;;;;62.80;46.40;;;;;11.81;47.39;98504.66;6149250;28;125409;-60
2021/01/04 12:11:32;;;;;;;;;63.67;48.00;;;;;11.58;47.60;98477.69;6155669;28;126609;-59
2021/01/04 12:14:34;;;;;;;;;65.00;49.20;;;;;11.81;47.84;98507.38;6160702;28;126317;-59
2021/01/04 12:17:36;;;;;;;;;64.60;49.00;;;;;11.79;47.69;98505.94;6160540;28;127455;-60
2021/01/04 12:20:40;;;;;;;;;62.00;46.00;;;;;11.84;47.74;98508.75;6159636;28;126626;-59
2021/01/04 12:23:42;;;;;;;;;61.50;46.00;;;;;11.81;47.72;98518.16;6154564;28;126067;-59
2021/01/04 12:26:48;;;;;;;;;58.50;45.00;;;;;11.95;47.50;98505.22;6147453;28;126563;-59
2021/01/04 12:29:50;;;;;;;;;63.00;47.00;;;;;11.86;47.30;98503.94;6158054;28;126268;-59
2021/01/04 12:32:51;;;;;;;;;57.60;45.80;;;;;12.05;47.51;98516.22;6160225;28;127149;-59
2021/01/04 12:35:53;;;;;;;;;56.60;44.60;;;;;12.17;47.17;98519.69;6160396;28;127192;-59
2021/01/04 12:38:54;;;;;;;;;62.00;47.00;;;;;12.29;46.90;98516.94;6158167;28;128720;-59
2021/01/04 12:41:56;;;;;;;;;59.50;46.00;;;;;11.85;47.36;98524.72;6158319;28;126967;-59
2021/01/04 12:44:58;;;;;;;;;60.00;47.00;;;;;12.04;47.18;98528.91;6159301;28;123851;-59
2021/01/04 12:47:59;;;;;;;;;59.20;46.20;;;;;12.15;47.15;98524.53;6160190;28;127613;-59
2021/01/04 12:51:00;;;;;;;;;59.20;46.00;;;;;12.27;46.85;98529.88;6158179;28;126523;-59
2021/01/04 12:54:03;;;;;;;;;62.00;47.75;;;;;12.18;46.66;98529.44;6158272;28;125536;-59
2021/01/04 12:57:09;;;;;;;;;61.75;47.75;;;;;11.80;47.58;98513.00;6159633;28;124733;-59
2021/01/04 13:00:11;;;;;;;;;63.25;48.00;;;;;11.92;47.45;98511.09;6159796;28;126672;-59
2021/01/04 13:03:14;;;;;;;;;59.40;46.00;;;;;11.87;47.05;98484.81;6158636;28;125271;-58
2021/01/04 13:06:22;;;;;;;;;58.60;46.00;;;;;12.10;46.94;98510.91;6160033;28;127313;-59
2021/01/04 13:09:24;;;;;;;;;57.40;44.40;;;;;12.25;46.50;98502.28;6160230;28;128038;-59
2021/01/04 13:12:26;;;;;;;;;58.40;44.20;;;;;12.30;46.36;98502.38;6161076;28;126319;-59
2021/01/04 13:15:28;;;;;;;;;58.33;46.00;;;;;12.29;46.48;98489.91;6175471;28;125891;-59
2021/01/04 13:18:37;;;;;;;;;60.00;45.00;;;;;12.31;46.22;98493.22;6158571;28;127036;-59
2021/01/04 13:21:42;;;;;;;;;62.00;47.40;;;;;12.17;46.29;98481.06;6144500;28;125811;-59
2021/01/04 13:24:45;;;;;;;;;62.00;48.00;;;;;12.18;46.44;98483.50;6158108;28;125173;-58
2021/01/04 13:27:47;;;;;;;;;59.25;46.00;;;;;12.10;46.48;98478.50;6136185;28;126870;-59
2021/01/04 13:30:48;;;;;;;;;61.80;47.80;;;;;11.86;47.01;98477.75;6162493;28;125398;-60
2021/01/04 13:33:50;;;;;;;;;59.40;46.00;;;;;11.75;47.27;98480.47;6155275;28;125007;-59
2021/01/04 13:36:53;;;;;;;;;62.00;46.25;;;;;11.63;47.62;98486.69;6158436;28;125493;-60
2021/01/04 13:39:55;;;;;;;;;61.20;46.00;;;;;11.21;47.90;98437.50;6158715;28;127122;-59
2021/01/04 13:42:57;;;;;;;;;62.60;48.00;;;;;11.62;48.06;98482.38;6158307;28;126365;-60
2021/01/04 13:45:59;;;;;;;;;63.50;48.00;;;;;11.48;48.13;98494.50;6150866;28;125192;-59
2021/01/04 13:49:01;;;;;;;;;61.20;46.20;;;;;11.11;49.00;98498.47;6149287;28;126403;-59
2021/01/04 13:52:03;;;;;;;;;64.00;48.00;;;;;11.03;49.32;98502.38;6156485;28;126833;-58
2021/01/04 13:55:06;;;;;;;;;65.00;47.60;;;;;11.07;49.34;98494.63;6157219;28;127848;-58
2021/01/04 13:58:07;;;;;;;;;63.00;48.50;;;;;11.06;49.65;98495.66;6157466;28;127907;-58
2021/01/04 14:01:08;;;;;;;;;62.00;46.40;;;;;10.90;49.93;98480.19;6157402;28;126643;-59
2021/01/04 14:04:11;;;;;;;;;58.60;45.00;;;;;10.88;49.86;98490.38;6156919;28;127763;-59
2021/01/04 14:07:15;;;;;;;;;58.60;45.60;;;;;10.54;49.76;98427.28;6155687;28;123867;-59
2021/01/04 14:10:16;;;;;;;;;58.00;45.00;;;;;10.89;49.89;98473.16;6158024;28;127339;-59
2021/01/04 14:13:19;;;;;;;;;56.60;43.40;;;;;10.13;49.93;98363.44;6158273;28;128345;-59
2021/01/04 14:16:27;;;;;;;;;56.00;43.00;;;;;10.95;49.58;98481.13;6157917;28;126118;-59
2021/01/04 14:19:50;;;;;;;;;50.00;39.00;;;;;10.77;49.96;98483.91;6157240;28;124653;-58
2021/01/04 14:22:51;;;;;;;;;50.00;39.50;;;;;10.70;50.15;98486.72;6154144;28;127169;-59
2021/01/04 14:25:52;;;;;;;;;48.75;37.75;;;;;10.51;50.68;98490.53;6156860;28;126744;-59
2021/01/04 14:28:55;;;;;;;;;50.50;40.00;;;;;10.42;50.74;98487.38;6155685;28;127843;-58